Home   Weather   City of Milan   Past weeks
Flag for USA

Past Weather in City of Milan, Georgia, USA — Yesterday and Last 2 Weeks

Currently: 70 °F. Scattered clouds. (Weather station: Houston County Airport, USA). See more current weather

Past Weather in City of Milan — Graph

°F

City of Milan Temperature Yesterday

Maximum temperature yesterday: 73 °F (at 3:15 pm)
Minimum temperature yesterday: 40 °F (at 5:35 am)
Average temperature yesterday: 58 °F

High & Low Weather Summary for the Past Weeks

 TemperatureHumidityPressure
High73 °F (Nov 29, 3:15 pm)100% (Nov 25, 3:55 am)30.45 "Hg (Nov 25, 3:55 am)
Low28 °F (Nov 21, 12:55 am)22% (Nov 18, 12:55 pm)29.79 "Hg (Nov 27, 6:15 am)
Average53 °F71%30.17 "Hg
* Reported Nov 15 2:15 pm — Nov 30 2:15 pm, City of Milan. Weather by CustomWeather, © 2022

Note: Actual official high and low records may vary slightly from our data, if they occured in-between our weather recording intervals... More about our weather records

City of Milan Weather History for the Previous 24 Hours

Scroll right to see more
 ConditionsComfort  
Time TempWeatherWind HumidityBarometerVisibility
2:15 pm
Wed, Nov 30
69 °FPartly sunny.12 mph73%30.07 "Hg10 mi
1:35 pm67 °FBroken clouds.10 mph83%30.07 "Hg10 mi
12:55 pm65 °FMore clouds than sun.6 mph89%30.08 "Hg10 mi
12:35 pm65 °FMostly cloudy.9 mph90%30.09 "Hg10 mi
12:15 pm64 °FLow clouds.6 mph93%30.09 "Hg10 mi
11:55 am64 °FLow clouds.8 mph96%30.09 "Hg10 mi
11:35 am62 °FLow clouds.8 mph99%30.09 "Hg10 mi
10:55 am61 °FThundershowers. Low clouds.6 mph100%30.09 "Hg10 mi
10:35 am61 °FLow clouds.7 mph99%30.08 "Hg10 mi
10:15 am61 °FLow clouds.7 mph99%30.08 "Hg10 mi
9:55 am61 °FLight rain. Low clouds.8 mph100%30.10 "Hg10 mi
9:35 am61 °FLight rain. Mostly cloudy.10 mph100%30.07 "Hg7 mi
9:15 am61 °FThundershowers. Fog.8 mph100%30.08 "Hg4 mi
8:55 am61 °FThundershowers. Fog.6 mph99%30.07 "Hg2 mi
8:35 am61 °FRain. Fog.5 mph100%30.08 "Hg3 mi
7:55 am61 °FThundershowers. Fog.3 mph99%30.06 "Hg4 mi
7:15 am62 °FThunderstorms. Fog.No wind98%30.08 "Hg5 mi
6:55 am62 °FStrong thunderstorms. Fog.12 mph98%30.08 "Hg1 mi
6:35 am62 °FStrong thunderstorms. Fog.10 mph96%30.04 "Hg1 mi
6:15 am65 °FThunderstorms. Overcast.21 mph82%30.04 "Hg10 mi
5:55 am65 °FPartly cloudy.15 mph84%29.95 "Hg10 mi
5:35 am65 °FPassing clouds.15 mph84%29.94 "Hg10 mi
5:15 am65 °FPassing clouds.16 mph84%29.94 "Hg10 mi
4:55 am64 °FClear.17 mph85%29.93 "Hg10 mi
4:35 am64 °FPassing clouds.13 mph85%29.95 "Hg10 mi
4:15 am64 °FPassing clouds.12 mph86%29.97 "Hg10 mi
3:55 am64 °FPartly cloudy.13 mph86%29.97 "Hg10 mi
3:35 am63 °FPartly cloudy.9 mph89%29.97 "Hg10 mi
2:55 am63 °FMostly cloudy.8 mph89%29.98 "Hg10 mi
2:35 am63 °FOvercast.8 mph89%29.99 "Hg10 mi
2:15 am63 °FLight rain. Partly cloudy.9 mph86%30.00 "Hg10 mi
1:55 am64 °FPassing clouds.12 mph82%29.99 "Hg10 mi
1:15 am64 °FClear.10 mph80%30.00 "Hg10 mi
12:55 am65 °FClear.13 mph78%30.00 "Hg10 mi
12:15 am65 °FPassing clouds.12 mph76%30.02 "Hg10 mi
11:55 pm
Tue, Nov 29
65 °FPartly cloudy.12 mph75%30.02 "Hg10 mi
11:35 pm66 °FMostly cloudy.10 mph75%30.04 "Hg10 mi
11:15 pm66 °FOvercast.9 mph74%30.04 "Hg10 mi
10:55 pm66 °FOvercast.9 mph73%30.05 "Hg10 mi
10:15 pm66 °FOvercast.7 mph71%30.06 "Hg10 mi
9:55 pm66 °FOvercast.7 mph70%30.06 "Hg10 mi
9:35 pm67 °FOvercast.10 mph69%30.05 "Hg10 mi
9:15 pm67 °FOvercast.7 mph70%30.05 "Hg10 mi
8:55 pm66 °FOvercast.6 mph70%30.05 "Hg10 mi
8:35 pm66 °FOvercast.7 mph70%30.05 "Hg10 mi
8:15 pm66 °FOvercast.5 mph70%30.05 "Hg10 mi
7:55 pm66 °FOvercast.6 mph71%30.05 "Hg10 mi
6:35 pm66 °FPassing clouds.5 mph69%30.05 "Hg10 mi
6:15 pm67 °FPassing clouds.6 mph67%30.05 "Hg10 mi
5:55 pm68 °FPassing clouds.7 mph65%30.06 "Hg10 mi
5:15 pm70 °FMostly cloudy.7 mph61%30.06 "Hg10 mi
4:35 pm71 °FBroken clouds.9 mph59%30.06 "Hg10 mi
4:15 pm71 °FOvercast.9 mph57%30.07 "Hg10 mi
3:55 pm72 °FMostly cloudy.7 mph56%30.07 "Hg10 mi
3:15 pm73 °FOvercast.8 mph54%30.08 "Hg10 mi
Weather by CustomWeather, © 2022

See weather overview